createdAt,value
2018-04-13T00:00:27.248Z,94970.41
2018-04-13T00:02:54.797Z,94975.53
2018-04-13T00:05:38.854Z,94970.93
2018-04-13T00:08:06.399Z,94966.06
2018-04-13T00:10:33.954Z,94967.77
2018-04-13T00:13:01.525Z,94980.98
2018-04-13T00:15:29.092Z,94981.89
2018-04-13T00:17:56.638Z,94986.05
2018-04-13T00:20:24.186Z,94985.59
2018-04-13T00:22:51.763Z,94987.95
2018-04-13T00:25:19.315Z,94987.61
2018-04-13T00:27:46.879Z,94989.54
2018-04-13T00:30:14.429Z,94995.69
2018-04-13T00:32:41.958Z,95013.88
2018-04-13T00:35:09.505Z,95011.80
2018-04-13T00:37:37.029Z,95019.17
2018-04-13T00:40:04.601Z,95017.84
2018-04-13T00:42:32.147Z,95035.36
2018-04-13T00:44:59.683Z,95048.65
2018-04-13T00:47:27.224Z,95054.03
2018-04-13T00:49:54.777Z,95063.36
2018-04-13T00:52:22.297Z,95059.43
2018-04-13T00:54:49.848Z,95053.26
2018-04-13T00:57:17.381Z,95046.98
2018-04-13T00:59:44.906Z,95053.33
2018-04-13T01:02:12.464Z,95035.16
2018-04-13T01:04:40.010Z,95033.27
2018-04-13T01:07:07.566Z,95028.95
2018-04-13T01:09:35.146Z,95021.50
2018-04-13T01:12:02.685Z,95010.91
2018-04-13T01:14:30.223Z,94993.45
2018-04-13T01:16:57.767Z,94972.14
2018-04-13T01:19:25.307Z,94930.84
2018-04-13T01:21:52.861Z,94925.89
2018-04-13T01:24:20.431Z,94913.84
2018-04-13T01:26:47.965Z,94931.53
2018-04-13T01:29:15.506Z,94948.10
2018-04-13T01:31:43.056Z,94946.43
2018-04-13T01:34:10.765Z,94926.91
2018-04-13T01:36:38.317Z,94910.42
2018-04-13T01:39:06.753Z,94909.64
2018-04-13T01:41:34.282Z,94905.00
2018-04-13T01:44:01.867Z,94902.11
2018-04-13T01:46:29.381Z,94892.65
2018-04-13T01:48:56.872Z,94894.00
2018-04-13T01:51:24.356Z,94892.30
2018-04-13T01:53:51.871Z,94896.95
2018-04-13T01:56:19.344Z,94898.95
2018-04-13T01:58:46.830Z,94905.02
2018-04-13T02:01:14.309Z,94905.89
2018-04-13T02:03:42.150Z,94896.04
2018-04-13T02:06:09.623Z,94890.30
2018-04-13T02:08:37.173Z,94893.20
2018-04-13T02:11:04.727Z,94910.67
2018-04-13T02:13:32.294Z,94915.17
2018-04-13T02:15:59.796Z,94921.77
2018-04-13T02:18:27.403Z,94923.66
2018-04-13T02:20:54.904Z,94927.02
2018-04-13T02:23:22.403Z,94926.44
2018-04-13T02:25:49.873Z,94919.37
2018-04-13T02:28:17.343Z,94927.83
2018-04-13T02:30:44.845Z,94927.48
2018-04-13T02:33:12.352Z,94942.31
2018-04-13T02:35:39.847Z,94945.06
2018-04-13T02:38:07.328Z,94932.98
2018-04-13T02:40:35.108Z,94937.24
2018-04-13T02:43:03.048Z,94936.09
2018-04-13T02:45:30.909Z,94926.08
2018-04-13T02:47:58.444Z,94927.83
2018-04-13T02:50:26.003Z,94933.71
2018-04-13T02:52:53.596Z,94935.98
2018-04-13T02:55:21.136Z,94928.91
2018-04-13T02:57:48.668Z,94934.52
2018-04-13T03:00:16.231Z,94937.29
2018-04-13T03:02:43.747Z,94935.13
2018-04-13T03:05:11.273Z,94936.98
2018-04-13T03:07:38.912Z,94937.25
2018-04-13T03:10:06.401Z,94939.56
2018-04-13T03:12:33.940Z,94940.73
2018-04-13T03:15:01.431Z,94933.12
2018-04-13T03:17:28.910Z,94933.27
2018-04-13T03:19:56.415Z,94926.78
2018-04-13T03:22:23.884Z,94926.44
2018-04-13T03:24:51.394Z,94930.42
2018-04-13T03:27:18.943Z,94945.41
2018-04-13T03:29:46.414Z,94940.94
2018-04-13T03:32:13.891Z,94938.78
2018-04-13T03:34:41.375Z,94931.97
2018-04-13T03:37:08.847Z,94934.07
2018-04-13T03:39:36.328Z,94936.33
2018-04-13T03:42:03.862Z,94942.44
2018-04-13T03:44:31.364Z,94939.42
2018-04-13T03:46:58.832Z,94943.81
2018-04-13T03:49:26.300Z,94936.30
2018-04-13T03:51:53.789Z,94949.62
2018-04-13T03:54:21.271Z,94939.77
2018-04-13T03:56:48.821Z,94948.48
2018-04-13T03:59:16.363Z,94950.63
2018-04-13T04:01:43.846Z,94954.73
2018-04-13T04:04:11.708Z,94955.25
2018-04-13T04:06:39.183Z,94953.50
2018-04-13T04:09:06.823Z,94922.50
2018-04-13T04:11:34.331Z,94945.42
2018-04-13T04:14:01.796Z,94955.09
2018-04-13T04:16:29.312Z,94960.89
2018-04-13T04:18:56.792Z,94970.01
2018-04-13T04:21:35.962Z,94961.66
2018-04-13T04:24:15.209Z,94968.06
2018-04-13T04:26:48.195Z,94967.86
2018-04-13T04:29:15.662Z,94972.66
2018-04-13T04:31:43.156Z,94972.31
2018-04-13T04:34:10.667Z,94962.47
2018-04-13T04:36:38.155Z,94956.98
2018-04-13T04:39:06.434Z,94961.91
2018-04-13T04:41:33.944Z,94980.00
2018-04-13T04:44:01.444Z,94981.73
2018-04-13T04:46:28.970Z,94981.15
2018-04-13T04:48:56.448Z,94979.50
2018-04-13T04:51:23.987Z,94988.69
2018-04-13T04:53:51.539Z,94977.25
2018-04-13T04:56:19.052Z,94963.48
2018-04-13T04:58:46.554Z,94966.94
2018-04-13T05:01:14.026Z,94954.19
2018-04-13T05:03:41.529Z,94937.17
2018-04-13T05:06:09.008Z,94952.05
2018-04-13T05:08:36.509Z,94976.92
2018-04-13T05:11:04.074Z,95001.56
2018-04-13T05:13:31.646Z,94997.62
2018-04-13T05:15:59.207Z,94988.80
2018-04-13T05:18:26.758Z,94994.68
2018-04-13T05:20:54.294Z,94998.43
2018-04-13T05:23:21.823Z,95009.56
2018-04-13T05:25:49.389Z,95010.98
2018-04-13T05:28:16.930Z,95016.87
2018-04-13T05:30:44.400Z,95013.17
2018-04-13T05:33:11.916Z,95010.46
2018-04-13T05:35:39.409Z,95017.97
2018-04-13T05:38:06.945Z,95030.36
2018-04-13T05:40:34.439Z,95032.94
2018-04-13T05:43:01.933Z,95020.37
2018-04-13T05:45:29.421Z,95020.16
2018-04-13T05:47:56.964Z,95027.69
2018-04-13T05:50:24.514Z,95022.44
2018-04-13T05:52:52.026Z,95030.24
2018-04-13T05:55:19.568Z,95030.04
2018-04-13T05:57:47.106Z,95031.34
2018-04-13T06:00:14.667Z,95037.55
2018-04-13T06:02:42.221Z,95029.59
2018-04-13T06:05:09.769Z,95022.02
2018-04-13T06:07:37.353Z,95018.33
2018-04-13T06:10:04.890Z,95021.53
2018-04-13T06:12:32.430Z,95021.70
2018-04-13T06:14:59.982Z,95019.56
2018-04-13T06:17:27.515Z,95024.73
2018-04-13T06:19:55.087Z,95016.11
2018-04-13T06:22:22.621Z,95022.42
2018-04-13T06:24:50.097Z,95025.59
2018-04-13T06:27:17.669Z,95022.44
2018-04-13T06:29:45.941Z,95022.89
2018-04-13T06:32:13.465Z,95021.23
2018-04-13T06:34:40.951Z,95031.65
2018-04-13T06:37:08.479Z,95021.11
2018-04-13T06:39:36.187Z,95024.67
2018-04-13T06:42:03.718Z,95025.38
2018-04-13T06:44:31.255Z,95025.71
2018-04-13T06:46:58.831Z,95021.63
2018-04-13T06:49:26.363Z,95026.80
2018-04-13T06:51:53.896Z,95035.42
2018-04-13T06:54:21.457Z,95042.83
2018-04-13T06:56:48.992Z,95042.89
2018-04-13T06:59:16.559Z,95043.98
2018-04-13T07:01:44.048Z,95041.74
2018-04-13T07:04:11.542Z,95044.59
2018-04-13T07:06:39.127Z,95053.92
2018-04-13T07:09:06.664Z,95060.89
2018-04-13T07:11:34.196Z,95058.58
2018-04-13T07:14:01.790Z,95055.22
2018-04-13T07:16:29.314Z,95060.94
2018-04-13T07:18:56.805Z,95059.16
2018-04-13T07:21:24.307Z,95068.55
2018-04-13T07:23:51.795Z,95075.64
2018-04-13T07:26:19.312Z,95074.89
2018-04-13T07:28:46.857Z,95082.95
2018-04-13T07:31:14.331Z,95080.05
2018-04-13T07:33:42.020Z,95096.59
2018-04-13T07:36:09.655Z,95094.03
2018-04-13T07:38:37.799Z,95089.09
2018-04-13T07:41:05.040Z,95091.12
2018-04-13T07:43:32.880Z,95095.98
2018-04-13T07:46:00.270Z,95096.57
2018-04-13T07:48:27.763Z,95093.55
2018-04-13T07:50:55.305Z,95088.72
2018-04-13T07:53:22.838Z,95093.03
2018-04-13T07:55:50.419Z,95093.56
2018-04-13T07:58:17.956Z,95090.66
2018-04-13T08:00:46.045Z,95098.39
2018-04-13T08:03:13.098Z,95098.05
2018-04-13T08:05:40.665Z,95104.94
2018-04-13T08:08:08.536Z,95096.78
2018-04-13T08:10:36.099Z,95094.63
2018-04-13T08:13:03.632Z,95098.94
2018-04-13T08:15:31.240Z,95094.63
2018-04-13T08:17:58.796Z,95097.41
2018-04-13T08:20:26.315Z,95100.79
2018-04-13T08:22:53.856Z,95097.80
2018-04-13T08:25:21.395Z,95100.16
2018-04-13T08:27:48.950Z,95096.91
2018-04-13T08:30:16.436Z,95101.47
2018-04-13T08:32:43.969Z,95107.47
2018-04-13T08:35:11.523Z,95105.41
2018-04-13T08:37:39.061Z,95108.81
2018-04-13T08:40:06.615Z,95110.05
2018-04-13T08:42:34.210Z,95105.44
2018-04-13T08:45:02.439Z,95107.77
2018-04-13T08:47:30.016Z,95110.95
2018-04-13T08:49:57.584Z,95107.17
2018-04-13T08:52:25.136Z,95101.63
2018-04-13T08:54:52.793Z,95110.67
2018-04-13T08:57:20.690Z,95109.26
2018-04-13T08:59:48.248Z,95115.09
2018-04-13T09:02:15.810Z,95116.53
2018-04-13T09:04:43.347Z,95116.16
2018-04-13T09:07:10.918Z,95117.25
2018-04-13T09:09:38.481Z,95118.72
2018-04-13T09:12:06.008Z,95128.75
2018-04-13T09:14:40.214Z,95119.30
2018-04-13T09:17:07.695Z,95118.81
2018-04-13T09:19:35.235Z,95121.14
2018-04-13T09:22:02.780Z,95122.80
2018-04-13T09:24:30.343Z,95132.41
2018-04-13T09:26:57.909Z,95135.70
2018-04-13T09:29:25.481Z,95142.05
2018-04-13T09:31:53.040Z,95145.62
2018-04-13T09:34:20.586Z,95145.04
2018-04-13T09:36:48.128Z,95142.34
2018-04-13T09:39:15.677Z,95138.83
2018-04-13T09:41:43.229Z,95145.90
2018-04-13T09:44:10.805Z,95134.78
2018-04-13T09:46:38.340Z,95143.36
2018-04-13T09:49:05.880Z,95135.30
2018-04-13T09:51:33.432Z,95148.01
2018-04-13T09:54:00.973Z,95148.80
2018-04-13T09:56:28.533Z,95154.66
2018-04-13T09:58:56.088Z,95158.21
2018-04-13T10:01:23.658Z,95154.14
2018-04-13T10:06:57.958Z,95152.79
2018-04-13T10:09:25.475Z,95161.53
2018-04-13T10:11:53.057Z,95170.30
2018-04-13T10:14:20.582Z,95163.13
2018-04-13T10:16:48.118Z,95167.63
2018-04-13T10:19:15.631Z,95156.77
2018-04-13T10:21:43.226Z,95161.53
2018-04-13T10:24:10.797Z,95150.27
2018-04-13T10:26:38.363Z,95158.86
2018-04-13T10:29:12.687Z,95150.16
2018-04-13T10:31:45.719Z,95147.66
2018-04-13T10:34:13.263Z,95150.05
2018-04-13T10:36:40.800Z,95145.48
2018-04-13T10:39:08.409Z,95149.02
2018-04-13T10:41:35.945Z,95158.58
2018-04-13T10:44:03.475Z,95159.33
2018-04-13T10:46:31.045Z,95164.29
2018-04-13T10:48:58.591Z,95162.19
2018-04-13T10:51:26.189Z,95157.70
2018-04-13T10:53:53.744Z,95159.83
2018-04-13T10:56:21.651Z,95155.91
2018-04-13T10:58:49.491Z,95161.41
2018-04-13T11:01:17.243Z,95160.13
2018-04-13T11:03:45.233Z,95158.52
2018-04-13T11:06:12.817Z,95160.50
2018-04-13T11:08:41.801Z,95159.41
2018-04-13T11:11:09.848Z,95152.92
2018-04-13T11:13:37.373Z,95156.13
2018-04-13T11:16:13.040Z,95154.53
2018-04-13T11:18:45.779Z,95154.09
2018-04-13T11:21:13.328Z,95160.61
2018-04-13T11:23:40.895Z,95161.67
2018-04-13T11:26:13.858Z,95158.11
2018-04-13T11:28:41.401Z,95156.41
2018-04-13T11:31:09.666Z,95161.84
2018-04-13T11:33:37.868Z,95164.81
2018-04-13T11:36:05.680Z,95159.23
2018-04-13T11:38:34.143Z,95151.27
2018-04-13T11:41:01.713Z,95173.95
2018-04-13T11:43:30.526Z,95178.89
2018-04-13T11:45:58.637Z,95176.65
2018-04-13T11:48:26.247Z,95187.75
2018-04-13T11:50:55.739Z,95190.46
2018-04-13T11:53:24.239Z,95207.00
2018-04-13T11:55:55.450Z,95210.20
2018-04-13T11:58:23.761Z,95213.80
2018-04-13T12:00:52.502Z,95220.92
2018-04-13T12:03:23.043Z,95224.41
2018-04-13T12:05:56.078Z,95225.93
2018-04-13T12:11:27.655Z,95245.39
2018-04-13T12:13:55.335Z,95240.66
2018-04-13T12:16:22.936Z,95255.64
2018-04-13T12:18:56.055Z,95270.20
2018-04-13T12:21:28.043Z,95282.70
2018-04-13T12:23:59.052Z,95287.51
2018-04-13T12:26:28.493Z,95291.09
2018-04-13T12:28:56.677Z,95289.37
2018-04-13T12:31:24.297Z,95297.71
2018-04-13T12:33:51.900Z,95291.78
2018-04-13T12:36:19.499Z,95296.09
2018-04-13T12:38:47.120Z,95305.13
2018-04-13T12:41:14.671Z,95311.88
2018-04-13T12:43:42.333Z,95314.34
2018-04-13T12:46:10.010Z,95311.50
2018-04-13T12:48:37.644Z,95305.97
2018-04-13T12:51:05.272Z,95304.97
2018-04-13T12:53:32.954Z,95322.94
2018-04-13T12:56:00.530Z,95320.15
2018-04-13T12:58:28.168Z,95316.08
2018-04-13T13:00:55.867Z,95317.95
2018-04-13T13:03:23.468Z,95327.17
2018-04-13T13:05:51.114Z,95323.95
2018-04-13T13:08:18.724Z,95319.59
2018-04-13T13:10:46.316Z,95321.02
2018-04-13T13:13:13.916Z,95317.03
2018-04-13T13:15:41.549Z,95320.16
2018-04-13T13:18:09.246Z,95323.06
2018-04-13T13:20:37.001Z,95326.83
2018-04-13T13:23:04.578Z,95326.12
2018-04-13T13:25:32.142Z,95328.64
2018-04-13T13:28:00.033Z,95318.22
2018-04-13T13:30:27.765Z,95324.02
2018-04-13T13:32:55.360Z,95322.59
2018-04-13T13:35:23.071Z,95327.48
2018-04-13T13:37:50.676Z,95322.85
2018-04-13T13:40:18.472Z,95326.12
2018-04-13T13:42:51.197Z,95331.33
2018-04-13T13:45:19.086Z,95334.03
2018-04-13T13:47:46.679Z,95323.87
2018-04-13T13:50:14.232Z,95330.01
2018-04-13T13:52:41.811Z,95322.31
2018-04-13T13:55:09.398Z,95322.06
2018-04-13T13:57:36.965Z,95329.84
2018-04-13T14:00:05.167Z,95329.28
2018-04-13T14:02:32.716Z,95336.60
2018-04-13T14:05:00.270Z,95330.95
2018-04-13T14:07:27.856Z,95335.41
2018-04-13T14:12:58.531Z,95349.13
2018-04-13T14:15:26.078Z,95358.84
2018-04-13T14:17:53.633Z,95358.13
2018-04-13T14:20:21.216Z,95351.98
2018-04-13T14:22:48.811Z,95355.92
2018-04-13T14:25:16.377Z,95363.34
2018-04-13T14:27:43.944Z,95357.89
2018-04-13T14:30:11.503Z,95357.72
2018-04-13T14:32:39.056Z,95364.95
2018-04-13T14:35:06.617Z,95372.00
2018-04-13T14:37:34.206Z,95375.28
2018-04-13T14:40:01.751Z,95385.59
2018-04-13T14:42:29.346Z,95389.20
2018-04-13T14:44:56.960Z,95395.57
2018-04-13T14:47:24.530Z,95399.73
2018-04-13T14:49:52.148Z,95395.13
2018-04-13T14:52:19.718Z,95401.26
2018-04-13T14:54:47.272Z,95404.15
2018-04-13T14:57:14.829Z,95409.42
2018-04-13T14:59:42.379Z,95406.11
2018-04-13T15:02:09.921Z,95406.38
2018-04-13T15:04:37.490Z,95409.20
2018-04-13T15:07:05.093Z,95412.78
2018-04-13T15:09:32.663Z,95416.22
2018-04-13T15:12:00.229Z,95424.64
2018-04-13T15:14:27.800Z,95418.66
2018-04-13T15:16:55.448Z,95432.90
2018-04-13T15:19:23.008Z,95422.58
2018-04-13T15:21:50.580Z,95432.41
2018-04-13T15:24:18.192Z,95429.42
2018-04-13T15:26:45.752Z,95429.55
2018-04-13T15:29:13.342Z,95426.75
2018-04-13T15:31:40.925Z,95433.07
2018-04-13T15:34:08.520Z,95432.90
2018-04-13T15:36:36.058Z,95432.86
2018-04-13T15:39:03.644Z,95438.73
2018-04-13T15:41:31.279Z,95428.77
2018-04-13T15:43:58.868Z,95431.18
2018-04-13T15:46:26.356Z,95440.38
2018-04-13T15:48:53.832Z,95438.37
2018-04-13T15:51:21.686Z,95441.28
2018-04-13T15:53:49.243Z,95436.06
2018-04-13T15:56:25.025Z,95442.69
2018-04-13T15:59:09.233Z,95431.56
2018-04-13T16:01:45.375Z,95440.25
2018-04-13T16:04:14.937Z,95444.47
2018-04-13T16:06:45.476Z,95446.81
2018-04-13T16:12:19.294Z,95461.36
2018-04-13T16:14:48.938Z,95446.11
2018-04-13T16:17:20.189Z,95458.53
2018-04-13T16:20:14.094Z,95466.78
2018-04-13T16:22:49.312Z,95462.55
2018-04-13T16:25:23.921Z,95478.08
2018-04-13T16:28:02.387Z,95473.94
2018-04-13T16:30:35.691Z,95483.30
2018-04-13T16:33:06.514Z,95483.93
2018-04-13T16:38:20.301Z,95486.47
2018-04-13T16:40:53.578Z,95491.02
2018-04-13T16:43:24.297Z,95489.81
2018-04-13T16:45:52.856Z,95487.56
2018-04-13T16:48:26.981Z,95498.41
2018-04-13T16:50:58.249Z,95497.84
2018-04-13T16:53:35.453Z,95504.64
2018-04-13T17:01:52.567Z,95511.55
2018-04-13T17:04:26.003Z,95510.97
2018-04-13T17:06:58.952Z,95511.16
2018-04-13T17:09:35.208Z,95513.30
2018-04-13T17:24:25.526Z,95569.09
